sensor_id;sensor_type;location;lat;lon;timestamp;temperature;humidity
57636;DHT22;43465;50.728;4.160;2022-10-16T00:01:30;15.60;99.90
57636;DHT22;43465;50.728;4.160;2022-10-16T00:03:57;15.60;99.90
57636;DHT22;43465;50.728;4.160;2022-10-16T00:06:24;15.50;99.90
57636;DHT22;43465;50.728;4.160;2022-10-16T00:08:50;15.50;99.90
57636;DHT22;43465;50.728;4.160;2022-10-16T00:11:24;15.50;99.90
57636;DHT22;43465;50.728;4.160;2022-10-16T00:13:52;15.50;99.90
57636;DHT22;43465;50.728;4.160;2022-10-16T00:16:20;15.50;99.90
57636;DHT22;43465;50.728;4.160;2022-10-16T00:18:46;15.50;99.90
57636;DHT22;43465;50.728;4.160;2022-10-16T00:21:23;15.50;99.90
57636;DHT22;43465;50.728;4.160;2022-10-16T00:23:58;15.50;99.90
57636;DHT22;43465;50.728;4.160;2022-10-16T00:26:25;15.40;99.90
57636;DHT22;43465;50.728;4.160;2022-10-16T00:28:51;15.40;99.90
57636;DHT22;43465;50.728;4.160;2022-10-16T00:31:20;15.40;99.90
57636;DHT22;43465;50.728;4.160;2022-10-16T00:33:46;15.40;99.90
57636;DHT22;43465;50.728;4.160;2022-10-16T00:36:15;15.40;99.90
57636;DHT22;43465;50.728;4.160;2022-10-16T00:38:41;15.40;99.90
57636;DHT22;43465;50.728;4.160;2022-10-16T00:41:09;15.40;99.90
57636;DHT22;43465;50.728;4.160;2022-10-16T00:46:19;15.30;99.90
57636;DHT22;43465;50.728;4.160;2022-10-16T00:49:30;15.30;99.90
57636;DHT22;43465;50.728;4.160;2022-10-16T00:51:41;15.30;99.90
57636;DHT22;43465;50.728;4.160;2022-10-16T00:54:14;15.30;99.90
57636;DHT22;43465;50.728;4.160;2022-10-16T00:56:41;15.20;99.90
57636;DHT22;43465;50.728;4.160;2022-10-16T00:59:18;15.30;99.90
57636;DHT22;43465;50.728;4.160;2022-10-16T01:01:45;15.30;99.90
57636;DHT22;43465;50.728;4.160;2022-10-16T01:04:10;15.20;99.90
57636;DHT22;43465;50.728;4.160;2022-10-16T01:06:59;15.20;99.90
57636;DHT22;43465;50.728;4.160;2022-10-16T01:09:50;15.20;99.90
57636;DHT22;43465;50.728;4.160;2022-10-16T01:12:41;15.20;99.90
57636;DHT22;43465;50.728;4.160;2022-10-16T01:15:30;15.20;99.90
57636;DHT22;43465;50.728;4.160;2022-10-16T01:18:00;15.10;99.90
57636;DHT22;43465;50.728;4.160;2022-10-16T01:20:31;15.10;99.90
57636;DHT22;43465;50.728;4.160;2022-10-16T01:25:39;15.20;99.90
57636;DHT22;43465;50.728;4.160;2022-10-16T01:28:11;15.20;99.90
57636;DHT22;43465;50.728;4.160;2022-10-16T01:30:40;15.10;99.90
57636;DHT22;43465;50.728;4.160;2022-10-16T01:33:20;15.20;99.90
57636;DHT22;43465;50.728;4.160;2022-10-16T01:35:50;15.20;99.90
57636;DHT22;43465;50.728;4.160;2022-10-16T01:38:31;15.10;99.90
57636;DHT22;43465;50.728;4.160;2022-10-16T01:41:09;15.20;99.90
57636;DHT22;43465;50.728;4.160;2022-10-16T01:43:38;15.20;99.90
57636;DHT22;43465;50.728;4.160;2022-10-16T01:46:05;15.20;99.90
57636;DHT22;43465;50.728;4.160;2022-10-16T01:48:34;15.20;99.90
57636;DHT22;43465;50.728;4.160;2022-10-16T01:51:07;15.10;99.90
57636;DHT22;43465;50.728;4.160;2022-10-16T01:53:34;15.20;99.90
57636;DHT22;43465;50.728;4.160;2022-10-16T01:56:02;15.10;99.90
57636;DHT22;43465;50.728;4.160;2022-10-16T01:58:30;15.00;99.90
57636;DHT22;43465;50.728;4.160;2022-10-16T02:01:00;14.90;99.90
57636;DHT22;43465;50.728;4.160;2022-10-16T02:03:26;14.80;99.90
57636;DHT22;43465;50.728;4.160;2022-10-16T02:05:56;14.70;99.90
57636;DHT22;43465;50.728;4.160;2022-10-16T02:08:25;14.70;99.90
57636;DHT22;43465;50.728;4.160;2022-10-16T02:10:55;14.60;99.90
57636;DHT22;43465;50.728;4.160;2022-10-16T02:13:48;14.50;99.90
57636;DHT22;43465;50.728;4.160;2022-10-16T02:16:15;14.50;99.90
57636;DHT22;43465;50.728;4.160;2022-10-16T02:18:42;14.40;99.90
57636;DHT22;43465;50.728;4.160;2022-10-16T02:21:28;14.30;99.90
57636;DHT22;43465;50.728;4.160;2022-10-16T02:24:03;14.30;99.90
57636;DHT22;43465;50.728;4.160;2022-10-16T02:29:10;14.20;99.90
57636;DHT22;43465;50.728;4.160;2022-10-16T02:31:41;14.30;99.90
57636;DHT22;43465;50.728;4.160;2022-10-16T02:34:08;14.20;99.90
57636;DHT22;43465;50.728;4.160;2022-10-16T02:36:37;14.20;99.90
57636;DHT22;43465;50.728;4.160;2022-10-16T02:39:04;14.20;99.90
57636;DHT22;43465;50.728;4.160;2022-10-16T02:41:30;14.20;99.90
57636;DHT22;43465;50.728;4.160;2022-10-16T02:43:56;14.20;99.90
57636;DHT22;43465;50.728;4.160;2022-10-16T02:46:22;14.20;99.90
57636;DHT22;43465;50.728;4.160;2022-10-16T02:48:48;14.20;99.90
57636;DHT22;43465;50.728;4.160;2022-10-16T02:51:13;14.20;99.90
57636;DHT22;43465;50.728;4.160;2022-10-16T02:53:39;14.20;99.90
57636;DHT22;43465;50.728;4.160;2022-10-16T02:56:05;14.20;99.90
57636;DHT22;43465;50.728;4.160;2022-10-16T02:58:30;14.30;99.90
57636;DHT22;43465;50.728;4.160;2022-10-16T03:00:56;14.20;99.90
57636;DHT22;43465;50.728;4.160;2022-10-16T03:03:22;14.20;99.90
57636;DHT22;43465;50.728;4.160;2022-10-16T03:05:47;14.20;99.90
57636;DHT22;43465;50.728;4.160;2022-10-16T03:08:13;14.30;99.90
57636;DHT22;43465;50.728;4.160;2022-10-16T03:10:39;14.20;99.90
57636;DHT22;43465;50.728;4.160;2022-10-16T03:13:05;14.30;99.90
57636;DHT22;43465;50.728;4.160;2022-10-16T03:15:30;14.30;99.90
57636;DHT22;43465;50.728;4.160;2022-10-16T03:17:59;14.30;99.90
57636;DHT22;43465;50.728;4.160;2022-10-16T03:20:25;14.30;99.90
57636;DHT22;43465;50.728;4.160;2022-10-16T03:22:51;14.30;99.90
57636;DHT22;43465;50.728;4.160;2022-10-16T03:25:17;14.30;99.90
57636;DHT22;43465;50.728;4.160;2022-10-16T03:27:43;14.30;99.90
57636;DHT22;43465;50.728;4.160;2022-10-16T03:30:09;14.30;99.90
57636;DHT22;43465;50.728;4.160;2022-10-16T03:32:35;14.30;99.90
57636;DHT22;43465;50.728;4.160;2022-10-16T03:35:00;14.30;99.90
57636;DHT22;43465;50.728;4.160;2022-10-16T03:37:26;14.30;99.90
57636;DHT22;43465;50.728;4.160;2022-10-16T03:39:52;14.30;99.90
57636;DHT22;43465;50.728;4.160;2022-10-16T03:42:17;14.30;99.90
57636;DHT22;43465;50.728;4.160;2022-10-16T03:44:43;14.30;99.90
57636;DHT22;43465;50.728;4.160;2022-10-16T03:47:09;14.30;99.90
57636;DHT22;43465;50.728;4.160;2022-10-16T03:49:34;14.40;99.90
57636;DHT22;43465;50.728;4.160;2022-10-16T03:52:00;14.50;99.90
57636;DHT22;43465;50.728;4.160;2022-10-16T03:54:26;14.50;99.90
57636;DHT22;43465;50.728;4.160;2022-10-16T03:56:51;14.60;99.90
57636;DHT22;43465;50.728;4.160;2022-10-16T03:59:17;14.70;99.90
57636;DHT22;43465;50.728;4.160;2022-10-16T04:01:43;14.70;99.90
57636;DHT22;43465;50.728;4.160;2022-10-16T04:04:08;14.80;99.90
57636;DHT22;43465;50.728;4.160;2022-10-16T04:06:34;14.80;99.90
57636;DHT22;43465;50.728;4.160;2022-10-16T04:09:00;14.80;99.90
57636;DHT22;43465;50.728;4.160;2022-10-16T04:11:25;14.80;99.90
57636;DHT22;43465;50.728;4.160;2022-10-16T04:13:51;14.80;99.90
57636;DHT22;43465;50.728;4.160;2022-10-16T04:16:17;14.80;99.90
57636;DHT22;43465;50.728;4.160;2022-10-16T04:18:42;14.80;99.90
57636;DHT22;43465;50.728;4.160;2022-10-16T04:21:08;14.80;99.90
57636;DHT22;43465;50.728;4.160;2022-10-16T04:23:34;14.80;99.90
57636;DHT22;43465;50.728;4.160;2022-10-16T04:26:00;14.80;99.90
57636;DHT22;43465;50.728;4.160;2022-10-16T04:28:26;14.80;99.90
57636;DHT22;43465;50.728;4.160;2022-10-16T04:30:52;14.80;99.90
57636;DHT22;43465;50.728;4.160;2022-10-16T04:33:17;14.80;99.90
57636;DHT22;43465;50.728;4.160;2022-10-16T04:35:43;14.80;99.90
57636;DHT22;43465;50.728;4.160;2022-10-16T04:38:09;14.70;99.90
57636;DHT22;43465;50.728;4.160;2022-10-16T04:40:34;14.80;99.90
57636;DHT22;43465;50.728;4.160;2022-10-16T04:43:04;14.70;99.90
57636;DHT22;43465;50.728;4.160;2022-10-16T04:45:30;14.70;99.90
57636;DHT22;43465;50.728;4.160;2022-10-16T04:47:59;14.70;99.90
57636;DHT22;43465;50.728;4.160;2022-10-16T04:50:25;14.70;99.90
57636;DHT22;43465;50.728;4.160;2022-10-16T04:52:50;14.70;99.90
57636;DHT22;43465;50.728;4.160;2022-10-16T04:55:16;14.70;99.90
57636;DHT22;43465;50.728;4.160;2022-10-16T04:57:42;14.70;99.90
57636;DHT22;43465;50.728;4.160;2022-10-16T05:00:08;14.70;99.90
57636;DHT22;43465;50.728;4.160;2022-10-16T05:02:34;14.70;99.90
57636;DHT22;43465;50.728;4.160;2022-10-16T05:05:00;14.70;99.90
57636;DHT22;43465;50.728;4.160;2022-10-16T05:07:25;14.70;99.90
57636;DHT22;43465;50.728;4.160;2022-10-16T05:09:51;14.60;99.90
57636;DHT22;43465;50.728;4.160;2022-10-16T05:12:17;14.60;99.90
57636;DHT22;43465;50.728;4.160;2022-10-16T05:14:42;14.70;99.90
57636;DHT22;43465;50.728;4.160;2022-10-16T05:17:08;14.70;99.90
57636;DHT22;43465;50.728;4.160;2022-10-16T05:19:33;14.70;99.90
57636;DHT22;43465;50.728;4.160;2022-10-16T05:21:59;14.70;99.90
57636;DHT22;43465;50.728;4.160;2022-10-16T05:24:25;14.70;99.90
57636;DHT22;43465;50.728;4.160;2022-10-16T05:26:51;14.60;99.90
57636;DHT22;43465;50.728;4.160;2022-10-16T05:29:16;14.60;99.90
57636;DHT22;43465;50.728;4.160;2022-10-16T05:31:42;14.60;99.90
57636;DHT22;43465;50.728;4.160;2022-10-16T05:34:08;14.60;99.90
57636;DHT22;43465;50.728;4.160;2022-10-16T05:36:33;14.60;99.90
57636;DHT22;43465;50.728;4.160;2022-10-16T05:38:59;14.60;99.90
57636;DHT22;43465;50.728;4.160;2022-10-16T05:41:25;14.60;99.90
57636;DHT22;43465;50.728;4.160;2022-10-16T05:43:52;14.60;99.90
57636;DHT22;43465;50.728;4.160;2022-10-16T05:46:18;14.60;99.90
57636;DHT22;43465;50.728;4.160;2022-10-16T05:48:44;14.60;99.90
57636;DHT22;43465;50.728;4.160;2022-10-16T05:51:11;14.60;99.90
57636;DHT22;43465;50.728;4.160;2022-10-16T05:53:38;14.60;99.90
57636;DHT22;43465;50.728;4.160;2022-10-16T05:56:06;14.60;99.90
57636;DHT22;43465;50.728;4.160;2022-10-16T05:58:34;14.60;99.90
57636;DHT22;43465;50.728;4.160;2022-10-16T06:01:23;14.60;99.90
57636;DHT22;43465;50.728;4.160;2022-10-16T06:03:50;14.60;99.90
57636;DHT22;43465;50.728;4.160;2022-10-16T06:06:21;14.60;99.90
57636;DHT22;43465;50.728;4.160;2022-10-16T06:08:48;14.50;99.90
57636;DHT22;43465;50.728;4.160;2022-10-16T06:11:20;14.50;99.90
57636;DHT22;43465;50.728;4.160;2022-10-16T06:13:49;14.50;99.90
57636;DHT22;43465;50.728;4.160;2022-10-16T06:16:15;14.50;99.90
57636;DHT22;43465;50.728;4.160;2022-10-16T06:18:41;14.50;99.90
57636;DHT22;43465;50.728;4.160;2022-10-16T06:21:12;14.50;99.90
57636;DHT22;43465;50.728;4.160;2022-10-16T06:23:39;14.50;99.90
57636;DHT22;43465;50.728;4.160;2022-10-16T06:26:10;14.60;99.90
57636;DHT22;43465;50.728;4.160;2022-10-16T06:28:36;14.60;99.90
57636;DHT22;43465;50.728;4.160;2022-10-16T06:31:04;14.60;99.90
57636;DHT22;43465;50.728;4.160;2022-10-16T06:33:30;14.60;99.90
57636;DHT22;43465;50.728;4.160;2022-10-16T06:36:07;14.60;99.90
57636;DHT22;43465;50.728;4.160;2022-10-16T06:38:34;14.70;99.90
57636;DHT22;43465;50.728;4.160;2022-10-16T06:40:59;14.80;99.90
57636;DHT22;43465;50.728;4.160;2022-10-16T06:43:26;14.80;99.90
57636;DHT22;43465;50.728;4.160;2022-10-16T06:45:53;14.80;99.90
57636;DHT22;43465;50.728;4.160;2022-10-16T06:48:19;14.80;99.90
57636;DHT22;43465;50.728;4.160;2022-10-16T06:50:54;14.90;99.90
57636;DHT22;43465;50.728;4.160;2022-10-16T06:53:19;14.90;99.90
57636;DHT22;43465;50.728;4.160;2022-10-16T06:55:45;15.00;99.90
57636;DHT22;43465;50.728;4.160;2022-10-16T06:58:11;15.10;99.90
57636;DHT22;43465;50.728;4.160;2022-10-16T07:00:36;15.10;99.90
57636;DHT22;43465;50.728;4.160;2022-10-16T07:03:02;15.10;99.90
57636;DHT22;43465;50.728;4.160;2022-10-16T07:05:28;15.10;99.90
57636;DHT22;43465;50.728;4.160;2022-10-16T07:07:53;15.20;99.90
57636;DHT22;43465;50.728;4.160;2022-10-16T07:10:19;15.10;99.90
57636;DHT22;43465;50.728;4.160;2022-10-16T07:12:45;15.10;99.90
57636;DHT22;43465;50.728;4.160;2022-10-16T07:15:10;15.10;99.90
57636;DHT22;43465;50.728;4.160;2022-10-16T07:17:37;15.10;99.90
57636;DHT22;43465;50.728;4.160;2022-10-16T07:20:03;15.00;99.90
57636;DHT22;43465;50.728;4.160;2022-10-16T07:22:29;15.10;99.90
57636;DHT22;43465;50.728;4.160;2022-10-16T07:24:55;15.10;99.90
57636;DHT22;43465;50.728;4.160;2022-10-16T07:27:20;15.10;99.90
57636;DHT22;43465;50.728;4.160;2022-10-16T07:29:49;15.20;99.90
57636;DHT22;43465;50.728;4.160;2022-10-16T07:32:14;15.30;99.90
57636;DHT22;43465;50.728;4.160;2022-10-16T07:34:40;15.30;99.90
57636;DHT22;43465;50.728;4.160;2022-10-16T07:37:06;15.40;99.90
57636;DHT22;43465;50.728;4.160;2022-10-16T07:39:32;15.40;99.90
57636;DHT22;43465;50.728;4.160;2022-10-16T07:41:57;15.40;99.90
57636;DHT22;43465;50.728;4.160;2022-10-16T07:44:23;15.40;99.90
57636;DHT22;43465;50.728;4.160;2022-10-16T07:46:49;15.40;99.90
57636;DHT22;43465;50.728;4.160;2022-10-16T07:49:14;15.50;99.90
57636;DHT22;43465;50.728;4.160;2022-10-16T07:51:40;15.50;99.90
57636;DHT22;43465;50.728;4.160;2022-10-16T07:54:07;15.50;99.90
57636;DHT22;43465;50.728;4.160;2022-10-16T07:56:33;15.60;99.90
57636;DHT22;43465;50.728;4.160;2022-10-16T07:58:58;15.60;99.90
57636;DHT22;43465;50.728;4.160;2022-10-16T08:01:24;15.70;99.90
57636;DHT22;43465;50.728;4.160;2022-10-16T08:03:51;15.70;99.90
57636;DHT22;43465;50.728;4.160;2022-10-16T08:06:18;15.80;99.90
57636;DHT22;43465;50.728;4.160;2022-10-16T08:08:43;15.90;99.90
57636;DHT22;43465;50.728;4.160;2022-10-16T08:11:09;15.90;99.90
57636;DHT22;43465;50.728;4.160;2022-10-16T08:13:36;16.00;99.90
57636;DHT22;43465;50.728;4.160;2022-10-16T08:16:02;16.10;99.90
57636;DHT22;43465;50.728;4.160;2022-10-16T08:18:33;16.20;99.90
57636;DHT22;43465;50.728;4.160;2022-10-16T08:20:59;16.20;99.90
57636;DHT22;43465;50.728;4.160;2022-10-16T08:23:26;16.30;99.90
57636;DHT22;43465;50.728;4.160;2022-10-16T08:25:54;16.40;99.90
57636;DHT22;43465;50.728;4.160;2022-10-16T08:28:20;16.40;99.90
57636;DHT22;43465;50.728;4.160;2022-10-16T08:30:46;16.50;99.90
57636;DHT22;43465;50.728;4.160;2022-10-16T08:33:12;16.50;99.90
57636;DHT22;43465;50.728;4.160;2022-10-16T08:35:37;16.60;99.90
57636;DHT22;43465;50.728;4.160;2022-10-16T08:38:06;16.70;99.90
57636;DHT22;43465;50.728;4.160;2022-10-16T08:40:33;16.80;99.90
57636;DHT22;43465;50.728;4.160;2022-10-16T08:48:27;17.10;99.90
57636;DHT22;43465;50.728;4.160;2022-10-16T08:50:55;17.10;99.90
57636;DHT22;43465;50.728;4.160;2022-10-16T08:53:31;17.20;99.90
57636;DHT22;43465;50.728;4.160;2022-10-16T08:55:59;17.30;99.90
57636;DHT22;43465;50.728;4.160;2022-10-16T08:58:29;17.30;99.90
57636;DHT22;43465;50.728;4.160;2022-10-16T09:00:58;17.40;99.90
57636;DHT22;43465;50.728;4.160;2022-10-16T09:16:48;17.80;99.90
57636;DHT22;43465;50.728;4.160;2022-10-16T09:19:34;17.90;99.90
57636;DHT22;43465;50.728;4.160;2022-10-16T09:22:14;18.00;99.90
57636;DHT22;43465;50.728;4.160;2022-10-16T09:24:40;18.00;99.90
57636;DHT22;43465;50.728;4.160;2022-10-16T09:27:11;18.10;99.90
57636;DHT22;43465;50.728;4.160;2022-10-16T09:29:37;18.10;99.90
57636;DHT22;43465;50.728;4.160;2022-10-16T09:32:16;18.20;99.90
57636;DHT22;43465;50.728;4.160;2022-10-16T09:34:47;18.30;99.90
57636;DHT22;43465;50.728;4.160;2022-10-16T09:37:18;18.30;99.90
57636;DHT22;43465;50.728;4.160;2022-10-16T09:39:49;18.50;99.90
57636;DHT22;43465;50.728;4.160;2022-10-16T09:42:31;18.50;99.90
57636;DHT22;43465;50.728;4.160;2022-10-16T09:44:58;18.50;99.90
57636;DHT22;43465;50.728;4.160;2022-10-16T09:47:28;18.60;99.90
57636;DHT22;43465;50.728;4.160;2022-10-16T09:50:04;18.60;99.90
57636;DHT22;43465;50.728;4.160;2022-10-16T09:52:32;18.60;99.90
57636;DHT22;43465;50.728;4.160;2022-10-16T09:55:08;18.60;99.90
57636;DHT22;43465;50.728;4.160;2022-10-16T09:57:48;18.70;99.90
57636;DHT22;43465;50.728;4.160;2022-10-16T10:00:16;18.70;99.90
57636;DHT22;43465;50.728;4.160;2022-10-16T10:02:42;18.80;99.90
57636;DHT22;43465;50.728;4.160;2022-10-16T10:07:44;18.90;99.90
57636;DHT22;43465;50.728;4.160;2022-10-16T10:10:23;19.00;99.90
57636;DHT22;43465;50.728;4.160;2022-10-16T10:12:49;19.00;99.90
57636;DHT22;43465;50.728;4.160;2022-10-16T10:15:15;19.10;99.90
57636;DHT22;43465;50.728;4.160;2022-10-16T10:17:55;19.10;99.90
57636;DHT22;43465;50.728;4.160;2022-10-16T10:20:31;19.20;99.90
57636;DHT22;43465;50.728;4.160;2022-10-16T10:23:00;19.30;99.90
57636;DHT22;43465;50.728;4.160;2022-10-16T10:25:34;19.30;99.90
57636;DHT22;43465;50.728;4.160;2022-10-16T10:30:56;19.40;99.90
57636;DHT22;43465;50.728;4.160;2022-10-16T10:39:17;19.60;99.90
57636;DHT22;43465;50.728;4.160;2022-10-16T10:42:25;19.70;99.90
57636;DHT22;43465;50.728;4.160;2022-10-16T10:52:57;19.90;99.90
57636;DHT22;43465;50.728;4.160;2022-10-16T10:55:46;19.90;99.90
57636;DHT22;43465;50.728;4.160;2022-10-16T11:01:21;19.80;99.90
57636;DHT22;43465;50.728;4.160;2022-10-16T11:07:04;20.00;99.90
57636;DHT22;43465;50.728;4.160;2022-10-16T11:09:43;20.10;99.90
57636;DHT22;43465;50.728;4.160;2022-10-16T11:12:25;20.20;99.90
57636;DHT22;43465;50.728;4.160;2022-10-16T11:18:28;20.30;99.90
57636;DHT22;43465;50.728;4.160;2022-10-16T11:20:40;20.20;99.90
57636;DHT22;43465;50.728;4.160;2022-10-16T11:23:14;20.30;99.90
57636;DHT22;43465;50.728;4.160;2022-10-16T11:25:43;20.30;99.90
57636;DHT22;43465;50.728;4.160;2022-10-16T11:28:25;20.40;99.90
57636;DHT22;43465;50.728;4.160;2022-10-16T11:30:59;20.50;99.90
57636;DHT22;43465;50.728;4.160;2022-10-16T11:39:27;20.50;99.90
57636;DHT22;43465;50.728;4.160;2022-10-16T11:42:18;20.30;99.90
57636;DHT22;43465;50.728;4.160;2022-10-16T11:47:45;20.20;99.90
57636;DHT22;43465;50.728;4.160;2022-10-16T11:55:58;20.10;99.90
57636;DHT22;43465;50.728;4.160;2022-10-16T11:58:54;20.10;99.90
57636;DHT22;43465;50.728;4.160;2022-10-16T12:04:11;20.30;99.90
57636;DHT22;43465;50.728;4.160;2022-10-16T12:06:46;20.40;99.90
57636;DHT22;43465;50.728;4.160;2022-10-16T12:09:32;20.40;99.90
57636;DHT22;43465;50.728;4.160;2022-10-16T12:11:58;20.40;99.90
57636;DHT22;43465;50.728;4.160;2022-10-16T12:14:37;20.30;99.90
57636;DHT22;43465;50.728;4.160;2022-10-16T12:17:25;20.40;99.90
57636;DHT22;43465;50.728;4.160;2022-10-16T12:20:23;20.50;99.90
57636;DHT22;43465;50.728;4.160;2022-10-16T12:25:37;20.40;99.90
57636;DHT22;43465;50.728;4.160;2022-10-16T12:28:22;20.40;99.90
57636;DHT22;43465;50.728;4.160;2022-10-16T12:31:02;20.40;99.90
57636;DHT22;43465;50.728;4.160;2022-10-16T12:33:40;20.40;99.90
57636;DHT22;43465;50.728;4.160;2022-10-16T12:36:15;20.40;99.90
57636;DHT22;43465;50.728;4.160;2022-10-16T12:38:50;20.50;99.90
57636;DHT22;43465;50.728;4.160;2022-10-16T12:41:33;20.50;99.90
57636;DHT22;43465;50.728;4.160;2022-10-16T12:44:00;20.50;99.90
57636;DHT22;43465;50.728;4.160;2022-10-16T12:51:47;20.60;99.90
57636;DHT22;43465;50.728;4.160;2022-10-16T13:16:34;20.70;99.90
57636;DHT22;43465;50.728;4.160;2022-10-16T13:22:06;20.70;99.90
57636;DHT22;43465;50.728;4.160;2022-10-16T13:30:02;21.00;99.90
57636;DHT22;43465;50.728;4.160;2022-10-16T13:32:34;21.10;99.90
57636;DHT22;43465;50.728;4.160;2022-10-16T13:35:00;21.20;99.90
57636;DHT22;43465;50.728;4.160;2022-10-16T13:37:26;21.20;99.90
57636;DHT22;43465;50.728;4.160;2022-10-16T13:40:06;21.10;99.90
57636;DHT22;43465;50.728;4.160;2022-10-16T13:42:37;21.00;99.90
57636;DHT22;43465;50.728;4.160;2022-10-16T13:45:02;20.90;99.90
57636;DHT22;43465;50.728;4.160;2022-10-16T13:47:29;20.90;99.90
57636;DHT22;43465;50.728;4.160;2022-10-16T13:50:09;21.00;99.90
57636;DHT22;43465;50.728;4.160;2022-10-16T13:52:36;20.90;99.90
57636;DHT22;43465;50.728;4.160;2022-10-16T13:55:04;20.90;99.90
57636;DHT22;43465;50.728;4.160;2022-10-16T13:57:35;20.80;99.90
57636;DHT22;43465;50.728;4.160;2022-10-16T14:00:00;20.80;99.90
57636;DHT22;43465;50.728;4.160;2022-10-16T14:02:33;20.80;99.90
57636;DHT22;43465;50.728;4.160;2022-10-16T14:05:01;20.70;99.90
57636;DHT22;43465;50.728;4.160;2022-10-16T14:07:31;20.60;99.90
57636;DHT22;43465;50.728;4.160;2022-10-16T14:10:02;20.60;99.90
57636;DHT22;43465;50.728;4.160;2022-10-16T14:12:29;20.60;99.90
57636;DHT22;43465;50.728;4.160;2022-10-16T14:14:55;20.60;99.90
57636;DHT22;43465;50.728;4.160;2022-10-16T14:17:34;20.60;99.90
57636;DHT22;43465;50.728;4.160;2022-10-16T14:20:04;20.60;99.90
57636;DHT22;43465;50.728;4.160;2022-10-16T14:22:34;20.60;99.90
57636;DHT22;43465;50.728;4.160;2022-10-16T14:25:01;20.70;99.90
57636;DHT22;43465;50.728;4.160;2022-10-16T14:27:31;20.60;99.90
57636;DHT22;43465;50.728;4.160;2022-10-16T14:30:14;20.50;99.90
57636;DHT22;43465;50.728;4.160;2022-10-16T14:32:42;20.50;99.90
57636;DHT22;43465;50.728;4.160;2022-10-16T14:37:54;20.50;99.90
57636;DHT22;43465;50.728;4.160;2022-10-16T14:40:24;20.60;99.90
57636;DHT22;43465;50.728;4.160;2022-10-16T14:42:50;20.60;99.90
57636;DHT22;43465;50.728;4.160;2022-10-16T14:45:26;20.70;99.90
57636;DHT22;43465;50.728;4.160;2022-10-16T14:47:56;20.70;99.90
57636;DHT22;43465;50.728;4.160;2022-10-16T14:50:22;20.60;99.90
57636;DHT22;43465;50.728;4.160;2022-10-16T14:52:48;20.60;99.90
57636;DHT22;43465;50.728;4.160;2022-10-16T14:55:14;20.60;99.90
57636;DHT22;43465;50.728;4.160;2022-10-16T14:57:40;20.60;99.90
57636;DHT22;43465;50.728;4.160;2022-10-16T15:00:18;20.60;99.90
57636;DHT22;43465;50.728;4.160;2022-10-16T15:02:45;20.70;99.90
57636;DHT22;43465;50.728;4.160;2022-10-16T15:05:20;20.70;99.90
57636;DHT22;43465;50.728;4.160;2022-10-16T15:07:47;20.70;99.90
57636;DHT22;43465;50.728;4.160;2022-10-16T15:10:15;20.70;99.90
57636;DHT22;43465;50.728;4.160;2022-10-16T15:12:41;20.60;99.90
57636;DHT22;43465;50.728;4.160;2022-10-16T15:17:51;20.70;99.90
57636;DHT22;43465;50.728;4.160;2022-10-16T15:20:23;20.60;99.90
57636;DHT22;43465;50.728;4.160;2022-10-16T15:22:49;20.50;99.90
57636;DHT22;43465;50.728;4.160;2022-10-16T15:25:34;20.40;99.90
57636;DHT22;43465;50.728;4.160;2022-10-16T15:28:02;20.30;99.90
57636;DHT22;43465;50.728;4.160;2022-10-16T15:30:28;20.30;99.90
57636;DHT22;43465;50.728;4.160;2022-10-16T15:32:54;20.20;99.90
57636;DHT22;43465;50.728;4.160;2022-10-16T15:35:20;20.20;99.90
57636;DHT22;43465;50.728;4.160;2022-10-16T15:37:46;20.20;99.90
57636;DHT22;43465;50.728;4.160;2022-10-16T15:40:12;20.20;99.90
57636;DHT22;43465;50.728;4.160;2022-10-16T15:42:38;20.10;99.90
57636;DHT22;43465;50.728;4.160;2022-10-16T15:45:05;20.00;99.90
57636;DHT22;43465;50.728;4.160;2022-10-16T15:47:31;20.00;99.90
57636;DHT22;43465;50.728;4.160;2022-10-16T15:49:57;20.00;99.90
57636;DHT22;43465;50.728;4.160;2022-10-16T15:52:23;20.00;99.90
57636;DHT22;43465;50.728;4.160;2022-10-16T15:54:49;20.00;99.90
57636;DHT22;43465;50.728;4.160;2022-10-16T15:57:14;19.90;99.90
57636;DHT22;43465;50.728;4.160;2022-10-16T15:59:40;19.90;99.90
57636;DHT22;43465;50.728;4.160;2022-10-16T16:02:07;19.90;99.90
57636;DHT22;43465;50.728;4.160;2022-10-16T16:04:33;19.80;99.90
57636;DHT22;43465;50.728;4.160;2022-10-16T16:06:58;19.70;99.90
57636;DHT22;43465;50.728;4.160;2022-10-16T16:09:24;19.80;99.90
57636;DHT22;43465;50.728;4.160;2022-10-16T16:11:50;19.80;99.90
57636;DHT22;43465;50.728;4.160;2022-10-16T16:14:17;19.70;99.90
57636;DHT22;43465;50.728;4.160;2022-10-16T16:16:43;19.70;99.90
57636;DHT22;43465;50.728;4.160;2022-10-16T16:19:08;19.70;99.90
57636;DHT22;43465;50.728;4.160;2022-10-16T16:21:35;19.70;99.90
57636;DHT22;43465;50.728;4.160;2022-10-16T16:24:00;19.60;99.90
57636;DHT22;43465;50.728;4.160;2022-10-16T16:26:34;19.60;99.90
57636;DHT22;43465;50.728;4.160;2022-10-16T16:29:03;19.60;99.90
57636;DHT22;43465;50.728;4.160;2022-10-16T16:31:30;19.60;99.90
57636;DHT22;43465;50.728;4.160;2022-10-16T16:33:56;19.50;99.90
57636;DHT22;43465;50.728;4.160;2022-10-16T16:36:23;19.40;99.90
57636;DHT22;43465;50.728;4.160;2022-10-16T16:38:50;19.30;99.90
57636;DHT22;43465;50.728;4.160;2022-10-16T16:41:24;19.20;99.90
57636;DHT22;43465;50.728;4.160;2022-10-16T16:43:51;19.30;99.90
57636;DHT22;43465;50.728;4.160;2022-10-16T16:46:17;19.40;99.90
57636;DHT22;43465;50.728;4.160;2022-10-16T16:48:44;19.50;99.90
57636;DHT22;43465;50.728;4.160;2022-10-16T16:51:12;19.60;99.90
57636;DHT22;43465;50.728;4.160;2022-10-16T16:53:41;19.60;99.90
57636;DHT22;43465;50.728;4.160;2022-10-16T16:56:07;19.40;99.90
57636;DHT22;43465;50.728;4.160;2022-10-16T16:58:33;19.10;99.90
57636;DHT22;43465;50.728;4.160;2022-10-16T17:00:59;19.00;99.90
57636;DHT22;43465;50.728;4.160;2022-10-16T17:03:28;19.00;99.90
57636;DHT22;43465;50.728;4.160;2022-10-16T17:05:58;19.10;99.90
57636;DHT22;43465;50.728;4.160;2022-10-16T17:08:24;19.00;99.90
57636;DHT22;43465;50.728;4.160;2022-10-16T17:10:49;18.90;99.90
57636;DHT22;43465;50.728;4.160;2022-10-16T17:13:18;18.80;99.90
57636;DHT22;43465;50.728;4.160;2022-10-16T17:15:49;18.70;99.90
57636;DHT22;43465;50.728;4.160;2022-10-16T17:18:15;18.80;99.90
57636;DHT22;43465;50.728;4.160;2022-10-16T17:20:42;18.90;99.90
57636;DHT22;43465;50.728;4.160;2022-10-16T17:23:09;19.00;99.90
57636;DHT22;43465;50.728;4.160;2022-10-16T17:25:37;18.90;99.90
57636;DHT22;43465;50.728;4.160;2022-10-16T17:28:03;18.80;99.90
57636;DHT22;43465;50.728;4.160;2022-10-16T17:30:28;18.70;99.90
57636;DHT22;43465;50.728;4.160;2022-10-16T17:32:54;18.70;99.90
57636;DHT22;43465;50.728;4.160;2022-10-16T17:35:20;18.70;99.90
57636;DHT22;43465;50.728;4.160;2022-10-16T17:37:45;18.70;99.90
57636;DHT22;43465;50.728;4.160;2022-10-16T17:40:11;18.70;99.90